sensor_id;sensor_type;location;lat;lon;timestamp;P1;durP1;ratioP1;P2;durP2;ratioP2
9827;SDS011;4953;48.952;9.442;2022-07-29T04:00:52;8.93;;;6.87;;
9827;SDS011;4953;48.952;9.442;2022-07-29T04:03:19;7.30;;;6.60;;
9827;SDS011;4953;48.952;9.442;2022-07-29T04:05:57;7.53;;;6.83;;
9827;SDS011;4953;48.952;9.442;2022-07-29T04:08:24;12.00;;;6.70;;
9827;SDS011;4953;48.952;9.442;2022-07-29T04:10:51;9.27;;;7.23;;
9827;SDS011;4953;48.952;9.442;2022-07-29T04:13:18;8.70;;;6.97;;
9827;SDS011;4953;48.952;9.442;2022-07-29T04:15:45;8.53;;;6.50;;
9827;SDS011;4953;48.952;9.442;2022-07-29T04:18:14;9.23;;;6.50;;
9827;SDS011;4953;48.952;9.442;2022-07-29T04:20:40;8.53;;;6.53;;
9827;SDS011;4953;48.952;9.442;2022-07-29T04:23:07;7.63;;;6.80;;
9827;SDS011;4953;48.952;9.442;2022-07-29T04:25:36;8.47;;;6.30;;
9827;SDS011;4953;48.952;9.442;2022-07-29T04:28:04;7.03;;;6.33;;
9827;SDS011;4953;48.952;9.442;2022-07-29T04:30:31;8.90;;;6.93;;
9827;SDS011;4953;48.952;9.442;2022-07-29T04:32:59;8.10;;;7.10;;
9827;SDS011;4953;48.952;9.442;2022-07-29T04:35:28;10.90;;;7.17;;
9827;SDS011;4953;48.952;9.442;2022-07-29T04:37:55;7.23;;;6.53;;
9827;SDS011;4953;48.952;9.442;2022-07-29T04:40:22;7.50;;;6.70;;
9827;SDS011;4953;48.952;9.442;2022-07-29T04:42:49;7.97;;;6.60;;
9827;SDS011;4953;48.952;9.442;2022-07-29T04:45:16;8.60;;;6.70;;
9827;SDS011;4953;48.952;9.442;2022-07-29T04:47:43;7.57;;;6.87;;
9827;SDS011;4953;48.952;9.442;2022-07-29T04:50:10;6.40;;;5.73;;
9827;SDS011;4953;48.952;9.442;2022-07-29T04:52:38;8.70;;;7.20;;
9827;SDS011;4953;48.952;9.442;2022-07-29T04:55:05;8.13;;;6.87;;
9827;SDS011;4953;48.952;9.442;2022-07-29T04:57:32;8.63;;;7.03;;
9827;SDS011;4953;48.952;9.442;2022-07-29T04:59:59;8.40;;;6.20;;
9827;SDS011;4953;48.952;9.442;2022-07-29T05:02:26;7.40;;;6.60;;
9827;SDS011;4953;48.952;9.442;2022-07-29T05:04:53;7.03;;;6.23;;
9827;SDS011;4953;48.952;9.442;2022-07-29T05:07:20;7.33;;;6.63;;
9827;SDS011;4953;48.952;9.442;2022-07-29T05:09:48;7.20;;;6.50;;
9827;SDS011;4953;48.952;9.442;2022-07-29T05:12:15;7.20;;;6.50;;
9827;SDS011;4953;48.952;9.442;2022-07-29T05:14:41;8.87;;;7.83;;
9827;SDS011;4953;48.952;9.442;2022-07-29T05:17:08;8.30;;;7.07;;
9827;SDS011;4953;48.952;9.442;2022-07-29T05:19:35;7.43;;;6.73;;
9827;SDS011;4953;48.952;9.442;2022-07-29T05:22:02;7.77;;;6.93;;
9827;SDS011;4953;48.952;9.442;2022-07-29T05:24:29;7.43;;;6.07;;
9827;SDS011;4953;48.952;9.442;2022-07-29T05:26:57;7.80;;;7.00;;
9827;SDS011;4953;48.952;9.442;2022-07-29T05:29:24;7.50;;;6.70;;
9827;SDS011;4953;48.952;9.442;2022-07-29T05:31:51;7.63;;;6.60;;
9827;SDS011;4953;48.952;9.442;2022-07-29T05:34:18;6.47;;;5.80;;
9827;SDS011;4953;48.952;9.442;2022-07-29T05:36:44;6.57;;;5.73;;
9827;SDS011;4953;48.952;9.442;2022-07-29T05:39:11;7.47;;;5.90;;
9827;SDS011;4953;48.952;9.442;2022-07-29T05:41:38;6.30;;;5.70;;
9827;SDS011;4953;48.952;9.442;2022-07-29T05:44:07;6.80;;;6.10;;
9827;SDS011;4953;48.952;9.442;2022-07-29T05:46:34;11.80;;;5.93;;
9827;SDS011;4953;48.952;9.442;2022-07-29T05:49:01;9.03;;;5.50;;
9827;SDS011;4953;48.952;9.442;2022-07-29T05:51:28;6.97;;;6.00;;
9827;SDS011;4953;48.952;9.442;2022-07-29T05:53:55;6.43;;;5.70;;
9827;SDS011;4953;48.952;9.442;2022-07-29T05:56:22;7.17;;;6.40;;
9827;SDS011;4953;48.952;9.442;2022-07-29T05:58:49;10.87;;;7.40;;
9827;SDS011;4953;48.952;9.442;2022-07-29T06:01:17;8.17;;;7.03;;
9827;SDS011;4953;48.952;9.442;2022-07-29T06:03:44;7.27;;;5.93;;
9827;SDS011;4953;48.952;9.442;2022-07-29T06:06:12;7.40;;;6.23;;
9827;SDS011;4953;48.952;9.442;2022-07-29T06:08:38;8.33;;;6.70;;
9827;SDS011;4953;48.952;9.442;2022-07-29T06:11:06;7.17;;;6.47;;
9827;SDS011;4953;48.952;9.442;2022-07-29T06:13:33;7.93;;;6.90;;
9827;SDS011;4953;48.952;9.442;2022-07-29T06:16:00;10.97;;;7.30;;
9827;SDS011;4953;48.952;9.442;2022-07-29T06:18:28;8.13;;;6.90;;
9827;SDS011;4953;48.952;9.442;2022-07-29T06:20:55;9.13;;;6.80;;
9827;SDS011;4953;48.952;9.442;2022-07-29T06:23:22;7.63;;;6.93;;
9827;SDS011;4953;48.952;9.442;2022-07-29T06:25:49;7.60;;;6.60;;
9827;SDS011;4953;48.952;9.442;2022-07-29T06:28:16;8.00;;;6.70;;
9827;SDS011;4953;48.952;9.442;2022-07-29T06:30:43;6.90;;;6.20;;
9827;SDS011;4953;48.952;9.442;2022-07-29T06:33:15;9.37;;;7.43;;
9827;SDS011;4953;48.952;9.442;2022-07-29T06:35:44;8.30;;;6.50;;
9827;SDS011;4953;48.952;9.442;2022-07-29T06:38:12;8.97;;;6.27;;
9827;SDS011;4953;48.952;9.442;2022-07-29T06:40:40;7.83;;;6.10;;
9827;SDS011;4953;48.952;9.442;2022-07-29T06:43:26;7.03;;;6.10;;
9827;SDS011;4953;48.952;9.442;2022-07-29T06:45:56;6.60;;;5.50;;
9827;SDS011;4953;48.952;9.442;2022-07-29T06:48:24;6.13;;;5.53;;
9827;SDS011;4953;48.952;9.442;2022-07-29T06:50:53;7.80;;;6.10;;
9827;SDS011;4953;48.952;9.442;2022-07-29T06:53:20;6.17;;;5.37;;
9827;SDS011;4953;48.952;9.442;2022-07-29T06:55:47;7.90;;;6.27;;
9827;SDS011;4953;48.952;9.442;2022-07-29T06:58:14;7.40;;;5.10;;
9827;SDS011;4953;48.952;9.442;2022-07-29T07:00:42;5.93;;;5.30;;
9827;SDS011;4953;48.952;9.442;2022-07-29T07:03:09;5.63;;;5.00;;
9827;SDS011;4953;48.952;9.442;2022-07-29T07:05:36;5.47;;;4.97;;
9827;SDS011;4953;48.952;9.442;2022-07-29T07:08:05;7.60;;;5.43;;
9827;SDS011;4953;48.952;9.442;2022-07-29T07:10:33;5.93;;;4.77;;
9827;SDS011;4953;48.952;9.442;2022-07-29T07:12:59;4.90;;;4.50;;
9827;SDS011;4953;48.952;9.442;2022-07-29T07:15:27;4.90;;;4.40;;
9827;SDS011;4953;48.952;9.442;2022-07-29T07:17:54;4.90;;;4.40;;
9827;SDS011;4953;48.952;9.442;2022-07-29T07:20:20;5.67;;;4.43;;
9827;SDS011;4953;48.952;9.442;2022-07-29T07:22:47;5.87;;;4.10;;
9827;SDS011;4953;48.952;9.442;2022-07-29T07:25:15;4.37;;;3.97;;
9827;SDS011;4953;48.952;9.442;2022-07-29T07:27:43;6.13;;;4.20;;
9827;SDS011;4953;48.952;9.442;2022-07-29T07:30:10;4.43;;;3.87;;
9827;SDS011;4953;48.952;9.442;2022-07-29T07:32:37;4.77;;;4.27;;
9827;SDS011;4953;48.952;9.442;2022-07-29T07:35:05;5.10;;;3.67;;
9827;SDS011;4953;48.952;9.442;2022-07-29T07:37:34;5.50;;;4.40;;
9827;SDS011;4953;48.952;9.442;2022-07-29T07:40:02;4.57;;;4.17;;
9827;SDS011;4953;48.952;9.442;2022-07-29T07:42:31;4.90;;;4.40;;
9827;SDS011;4953;48.952;9.442;2022-07-29T07:44:58;6.90;;;4.47;;
9827;SDS011;4953;48.952;9.442;2022-07-29T07:47:25;7.37;;;5.23;;
9827;SDS011;4953;48.952;9.442;2022-07-29T07:49:52;4.70;;;4.20;;
9827;SDS011;4953;48.952;9.442;2022-07-29T07:52:20;4.93;;;4.00;;
9827;SDS011;4953;48.952;9.442;2022-07-29T07:54:47;5.43;;;4.20;;
9827;SDS011;4953;48.952;9.442;2022-07-29T07:57:15;5.60;;;4.27;;
9827;SDS011;4953;48.952;9.442;2022-07-29T07:59:44;4.40;;;4.00;;
9827;SDS011;4953;48.952;9.442;2022-07-29T08:02:10;6.03;;;4.27;;
9827;SDS011;4953;48.952;9.442;2022-07-29T08:04:37;6.70;;;4.23;;
9827;SDS011;4953;48.952;9.442;2022-07-29T08:07:05;5.03;;;4.20;;
9827;SDS011;4953;48.952;9.442;2022-07-29T08:09:33;4.40;;;3.77;;
9827;SDS011;4953;48.952;9.442;2022-07-29T08:12:01;6.90;;;4.03;;
9827;SDS011;4953;48.952;9.442;2022-07-29T08:14:28;4.53;;;4.13;;
9827;SDS011;4953;48.952;9.442;2022-07-29T08:16:57;4.97;;;4.27;;
9827;SDS011;4953;48.952;9.442;2022-07-29T08:19:24;6.00;;;4.50;;
9827;SDS011;4953;48.952;9.442;2022-07-29T08:21:51;4.70;;;4.30;;
9827;SDS011;4953;48.952;9.442;2022-07-29T08:24:18;5.90;;;4.77;;
9827;SDS011;4953;48.952;9.442;2022-07-29T08:27:03;5.70;;;5.10;;
9827;SDS011;4953;48.952;9.442;2022-07-29T08:29:30;6.83;;;4.83;;
9827;SDS011;4953;48.952;9.442;2022-07-29T08:31:58;5.00;;;4.50;;
9827;SDS011;4953;48.952;9.442;2022-07-29T08:34:25;6.10;;;4.70;;
9827;SDS011;4953;48.952;9.442;2022-07-29T08:36:52;5.17;;;4.67;;
9827;SDS011;4953;48.952;9.442;2022-07-29T08:39:19;7.03;;;4.60;;
9827;SDS011;4953;48.952;9.442;2022-07-29T08:41:45;5.07;;;4.67;;
9827;SDS011;4953;48.952;9.442;2022-07-29T08:44:12;8.30;;;5.00;;
9827;SDS011;4953;48.952;9.442;2022-07-29T08:46:41;7.43;;;4.80;;
9827;SDS011;4953;48.952;9.442;2022-07-29T08:49:10;5.90;;;4.90;;
9827;SDS011;4953;48.952;9.442;2022-07-29T08:51:38;5.93;;;5.30;;
9827;SDS011;4953;48.952;9.442;2022-07-29T08:54:06;6.23;;;4.90;;
9827;SDS011;4953;48.952;9.442;2022-07-29T08:56:35;5.93;;;5.33;;
9827;SDS011;4953;48.952;9.442;2022-07-29T08:59:04;6.57;;;5.00;;
9827;SDS011;4953;48.952;9.442;2022-07-29T09:01:34;7.60;;;4.63;;
9827;SDS011;4953;48.952;9.442;2022-07-29T09:04:04;5.13;;;4.63;;
9827;SDS011;4953;48.952;9.442;2022-07-29T09:06:37;5.77;;;5.03;;
9827;SDS011;4953;48.952;9.442;2022-07-29T09:09:08;4.73;;;4.27;;
9827;SDS011;4953;48.952;9.442;2022-07-29T09:11:35;7.97;;;5.13;;
9827;SDS011;4953;48.952;9.442;2022-07-29T09:14:05;9.77;;;5.43;;
9827;SDS011;4953;48.952;9.442;2022-07-29T09:16:49;5.80;;;5.03;;
9827;SDS011;4953;48.952;9.442;2022-07-29T09:19:21;5.97;;;4.53;;
9827;SDS011;4953;48.952;9.442;2022-07-29T09:21:54;7.17;;;4.80;;
9827;SDS011;4953;48.952;9.442;2022-07-29T09:24:26;5.90;;;4.63;;
9827;SDS011;4953;48.952;9.442;2022-07-29T09:27:06;5.33;;;4.60;;
9827;SDS011;4953;48.952;9.442;2022-07-29T09:29:35;5.50;;;4.80;;
9827;SDS011;4953;48.952;9.442;2022-07-29T09:32:05;8.00;;;4.20;;
9827;SDS011;4953;48.952;9.442;2022-07-29T09:34:34;5.00;;;4.50;;
9827;SDS011;4953;48.952;9.442;2022-07-29T09:37:02;4.93;;;4.27;;
9827;SDS011;4953;48.952;9.442;2022-07-29T09:39:30;8.93;;;4.77;;
9827;SDS011;4953;48.952;9.442;2022-07-29T09:41:59;6.90;;;5.10;;
9827;SDS011;4953;48.952;9.442;2022-07-29T09:44:27;7.87;;;5.00;;
9827;SDS011;4953;48.952;9.442;2022-07-29T09:47:07;5.70;;;4.47;;
9827;SDS011;4953;48.952;9.442;2022-07-29T09:49:35;5.30;;;4.30;;
9827;SDS011;4953;48.952;9.442;2022-07-29T09:52:16;5.70;;;5.10;;
9827;SDS011;4953;48.952;9.442;2022-07-29T09:54:43;6.70;;;5.07;;
9827;SDS011;4953;48.952;9.442;2022-07-29T09:57:21;10.60;;;4.60;;
9827;SDS011;4953;48.952;9.442;2022-07-29T09:59:55;10.30;;;4.80;;
9827;SDS011;4953;48.952;9.442;2022-07-29T10:02:27;7.03;;;4.70;;
9827;SDS011;4953;48.952;9.442;2022-07-29T10:04:55;7.40;;;4.70;;
9827;SDS011;4953;48.952;9.442;2022-07-29T10:07:23;5.33;;;4.83;;
9827;SDS011;4953;48.952;9.442;2022-07-29T10:09:54;10.07;;;4.63;;
9827;SDS011;4953;48.952;9.442;2022-07-29T10:12:23;6.80;;;5.10;;
9827;SDS011;4953;48.952;9.442;2022-07-29T10:14:50;8.90;;;5.40;;
9827;SDS011;4953;48.952;9.442;2022-07-29T10:17:20;9.30;;;5.10;;
9827;SDS011;4953;48.952;9.442;2022-07-29T10:19:47;10.77;;;4.90;;
9827;SDS011;4953;48.952;9.442;2022-07-29T10:22:15;7.03;;;4.60;;
9827;SDS011;4953;48.952;9.442;2022-07-29T10:24:44;9.60;;;5.03;;
9827;SDS011;4953;48.952;9.442;2022-07-29T10:27:11;6.33;;;5.07;;
9827;SDS011;4953;48.952;9.442;2022-07-29T10:29:38;6.70;;;5.07;;
9827;SDS011;4953;48.952;9.442;2022-07-29T10:32:20;5.93;;;5.10;;
9827;SDS011;4953;48.952;9.442;2022-07-29T10:38:07;5.97;;;4.33;;
9827;SDS011;4953;48.952;9.442;2022-07-29T10:40:51;7.10;;;5.23;;
9827;SDS011;4953;48.952;9.442;2022-07-29T10:43:46;8.10;;;5.30;;
9827;SDS011;4953;48.952;9.442;2022-07-29T10:46:15;8.93;;;4.80;;
9827;SDS011;4953;48.952;9.442;2022-07-29T10:51:51;6.10;;;5.30;;
9827;SDS011;4953;48.952;9.442;2022-07-29T10:54:38;6.83;;;5.13;;
9827;SDS011;4953;48.952;9.442;2022-07-29T10:57:19;12.83;;;5.97;;
9827;SDS011;4953;48.952;9.442;2022-07-29T10:59:49;9.40;;;5.33;;
9827;SDS011;4953;48.952;9.442;2022-07-29T11:05:13;7.33;;;4.73;;
9827;SDS011;4953;48.952;9.442;2022-07-29T11:10:43;7.10;;;5.63;;
9827;SDS011;4953;48.952;9.442;2022-07-29T11:13:11;9.60;;;5.10;;
9827;SDS011;4953;48.952;9.442;2022-07-29T11:15:51;8.13;;;5.40;;
9827;SDS011;4953;48.952;9.442;2022-07-29T11:18:19;9.00;;;5.90;;
9827;SDS011;4953;48.952;9.442;2022-07-29T11:20:47;5.83;;;5.23;;
9827;SDS011;4953;48.952;9.442;2022-07-29T11:23:22;7.30;;;4.80;;
9827;SDS011;4953;48.952;9.442;2022-07-29T11:28:54;5.80;;;4.77;;
9827;SDS011;4953;48.952;9.442;2022-07-29T11:31:32;6.60;;;4.80;;
9827;SDS011;4953;48.952;9.442;2022-07-29T11:42:45;5.60;;;4.97;;
9827;SDS011;4953;48.952;9.442;2022-07-29T11:45:14;8.20;;;4.97;;
9827;SDS011;4953;48.952;9.442;2022-07-29T11:47:47;7.50;;;4.73;;
9827;SDS011;4953;48.952;9.442;2022-07-29T11:50:16;5.33;;;4.40;;
9827;SDS011;4953;48.952;9.442;2022-07-29T11:52:45;7.03;;;5.13;;
9827;SDS011;4953;48.952;9.442;2022-07-29T11:55:14;6.83;;;5.07;;
9827;SDS011;4953;48.952;9.442;2022-07-29T11:57:46;7.70;;;5.03;;
9827;SDS011;4953;48.952;9.442;2022-07-29T12:00:22;10.90;;;4.90;;
9827;SDS011;4953;48.952;9.442;2022-07-29T12:02:50;5.17;;;4.63;;
9827;SDS011;4953;48.952;9.442;2022-07-29T12:05:17;6.70;;;5.13;;
9827;SDS011;4953;48.952;9.442;2022-07-29T12:07:45;6.13;;;4.80;;
9827;SDS011;4953;48.952;9.442;2022-07-29T12:10:13;5.37;;;4.87;;
9827;SDS011;4953;48.952;9.442;2022-07-29T12:12:40;8.90;;;5.03;;
9827;SDS011;4953;48.952;9.442;2022-07-29T12:15:11;9.13;;;4.80;;
9827;SDS011;4953;48.952;9.442;2022-07-29T12:17:41;6.97;;;4.53;;
9827;SDS011;4953;48.952;9.442;2022-07-29T12:20:08;6.30;;;5.03;;
9827;SDS011;4953;48.952;9.442;2022-07-29T12:22:36;6.53;;;4.90;;
9827;SDS011;4953;48.952;9.442;2022-07-29T12:25:05;6.30;;;5.00;;
9827;SDS011;4953;48.952;9.442;2022-07-29T12:27:34;9.40;;;5.40;;
9827;SDS011;4953;48.952;9.442;2022-07-29T12:30:03;10.80;;;5.90;;
9827;SDS011;4953;48.952;9.442;2022-07-29T12:32:33;7.40;;;5.30;;
9827;SDS011;4953;48.952;9.442;2022-07-29T12:35:06;9.03;;;6.10;;
9827;SDS011;4953;48.952;9.442;2022-07-29T12:37:36;12.60;;;5.33;;
9827;SDS011;4953;48.952;9.442;2022-07-29T12:40:05;9.17;;;5.93;;
9827;SDS011;4953;48.952;9.442;2022-07-29T12:42:33;10.77;;;5.17;;
9827;SDS011;4953;48.952;9.442;2022-07-29T12:45:01;5.70;;;5.10;;
9827;SDS011;4953;48.952;9.442;2022-07-29T12:47:29;6.40;;;4.93;;
9827;SDS011;4953;48.952;9.442;2022-07-29T12:50:08;7.03;;;4.73;;
9827;SDS011;4953;48.952;9.442;2022-07-29T12:52:37;7.00;;;5.00;;
9827;SDS011;4953;48.952;9.442;2022-07-29T12:55:04;13.73;;;4.90;;
9827;SDS011;4953;48.952;9.442;2022-07-29T12:57:31;4.60;;;3.80;;
9827;SDS011;4953;48.952;9.442;2022-07-29T13:00:11;7.87;;;4.10;;
9827;SDS011;4953;48.952;9.442;2022-07-29T13:02:39;4.40;;;3.70;;
9827;SDS011;4953;48.952;9.442;2022-07-29T13:05:09;4.10;;;3.30;;
9827;SDS011;4953;48.952;9.442;2022-07-29T13:07:37;6.20;;;3.23;;
9827;SDS011;4953;48.952;9.442;2022-07-29T13:10:11;3.90;;;2.40;;
9827;SDS011;4953;48.952;9.442;2022-07-29T13:12:39;6.73;;;2.63;;
9827;SDS011;4953;48.952;9.442;2022-07-29T13:15:34;4.67;;;2.63;;
9827;SDS011;4953;48.952;9.442;2022-07-29T13:18:02;3.13;;;2.63;;
9827;SDS011;4953;48.952;9.442;2022-07-29T13:20:30;5.83;;;2.83;;
9827;SDS011;4953;48.952;9.442;2022-07-29T13:22:58;4.70;;;2.97;;
9827;SDS011;4953;48.952;9.442;2022-07-29T13:25:26;2.60;;;2.40;;
9827;SDS011;4953;48.952;9.442;2022-07-29T13:27:55;3.27;;;2.53;;
9827;SDS011;4953;48.952;9.442;2022-07-29T13:30:22;4.47;;;3.90;;
9827;SDS011;4953;48.952;9.442;2022-07-29T13:32:49;4.70;;;3.83;;
9827;SDS011;4953;48.952;9.442;2022-07-29T13:35:17;5.77;;;3.53;;
9827;SDS011;4953;48.952;9.442;2022-07-29T13:37:46;4.20;;;3.20;;
9827;SDS011;4953;48.952;9.442;2022-07-29T13:40:13;4.20;;;2.70;;
9827;SDS011;4953;48.952;9.442;2022-07-29T13:42:40;4.67;;;2.80;;
9827;SDS011;4953;48.952;9.442;2022-07-29T13:45:08;2.70;;;2.50;;
9827;SDS011;4953;48.952;9.442;2022-07-29T13:47:36;3.67;;;2.80;;
9827;SDS011;4953;48.952;9.442;2022-07-29T13:50:04;3.30;;;2.50;;
9827;SDS011;4953;48.952;9.442;2022-07-29T13:52:32;3.37;;;2.77;;
9827;SDS011;4953;48.952;9.442;2022-07-29T13:55:00;5.20;;;2.70;;
9827;SDS011;4953;48.952;9.442;2022-07-29T13:57:28;5.20;;;2.87;;
9827;SDS011;4953;48.952;9.442;2022-07-29T13:59:55;4.27;;;2.97;;
9827;SDS011;4953;48.952;9.442;2022-07-29T14:02:22;3.50;;;2.57;;
9827;SDS011;4953;48.952;9.442;2022-07-29T14:04:49;3.07;;;2.47;;
9827;SDS011;4953;48.952;9.442;2022-07-29T14:07:16;4.00;;;2.47;;
9827;SDS011;4953;48.952;9.442;2022-07-29T14:09:43;3.87;;;2.67;;
9827;SDS011;4953;48.952;9.442;2022-07-29T14:12:11;4.00;;;2.50;;
9827;SDS011;4953;48.952;9.442;2022-07-29T14:14:38;3.93;;;2.47;;
9827;SDS011;4953;48.952;9.442;2022-07-29T14:17:06;2.93;;;2.63;;
9827;SDS011;4953;48.952;9.442;2022-07-29T14:19:33;4.53;;;2.97;;
9827;SDS011;4953;48.952;9.442;2022-07-29T14:22:03;4.10;;;3.03;;
9827;SDS011;4953;48.952;9.442;2022-07-29T14:24:30;3.23;;;2.93;;
9827;SDS011;4953;48.952;9.442;2022-07-29T14:26:57;4.77;;;3.10;;
9827;SDS011;4953;48.952;9.442;2022-07-29T14:29:26;3.27;;;2.97;;
9827;SDS011;4953;48.952;9.442;2022-07-29T14:31:53;3.73;;;3.43;;
9827;SDS011;4953;48.952;9.442;2022-07-29T14:34:20;5.30;;;3.30;;
9827;SDS011;4953;48.952;9.442;2022-07-29T14:36:47;4.00;;;3.30;;
9827;SDS011;4953;48.952;9.442;2022-07-29T14:39:14;5.97;;;3.43;;
9827;SDS011;4953;48.952;9.442;2022-07-29T14:41:41;3.70;;;3.27;;
9827;SDS011;4953;48.952;9.442;2022-07-29T14:44:09;7.13;;;3.53;;
9827;SDS011;4953;48.952;9.442;2022-07-29T14:46:37;6.37;;;4.00;;
9827;SDS011;4953;48.952;9.442;2022-07-29T14:49:04;4.70;;;3.93;;
9827;SDS011;4953;48.952;9.442;2022-07-29T14:51:31;4.20;;;3.80;;
9827;SDS011;4953;48.952;9.442;2022-07-29T14:53:58;6.30;;;3.40;;
9827;SDS011;4953;48.952;9.442;2022-07-29T14:56:25;5.60;;;3.50;;
9827;SDS011;4953;48.952;9.442;2022-07-29T14:58:54;4.20;;;3.80;;
9827;SDS011;4953;48.952;9.442;2022-07-29T15:01:22;6.33;;;4.10;;
9827;SDS011;4953;48.952;9.442;2022-07-29T15:03:50;6.00;;;4.50;;
9827;SDS011;4953;48.952;9.442;2022-07-29T15:06:17;4.30;;;3.57;;
9827;SDS011;4953;48.952;9.442;2022-07-29T15:08:44;4.50;;;4.10;;
9827;SDS011;4953;48.952;9.442;2022-07-29T15:11:11;7.37;;;4.37;;
9827;SDS011;4953;48.952;9.442;2022-07-29T15:13:38;5.30;;;3.87;;
9827;SDS011;4953;48.952;9.442;2022-07-29T15:16:05;7.00;;;4.27;;
9827;SDS011;4953;48.952;9.442;2022-07-29T15:18:31;6.47;;;4.47;;
9827;SDS011;4953;48.952;9.442;2022-07-29T15:21:00;6.97;;;4.13;;
9827;SDS011;4953;48.952;9.442;2022-07-29T15:23:27;6.23;;;4.53;;
9827;SDS011;4953;48.952;9.442;2022-07-29T15:25:54;8.40;;;4.80;;
9827;SDS011;4953;48.952;9.442;2022-07-29T15:28:20;5.60;;;4.73;;
9827;SDS011;4953;48.952;9.442;2022-07-29T15:30:47;4.43;;;4.03;;
9827;SDS011;4953;48.952;9.442;2022-07-29T15:33:14;5.73;;;4.00;;
9827;SDS011;4953;48.952;9.442;2022-07-29T15:35:41;6.73;;;4.53;;
9827;SDS011;4953;48.952;9.442;2022-07-29T15:38:09;6.60;;;4.13;;
9827;SDS011;4953;48.952;9.442;2022-07-29T15:40:36;6.93;;;4.47;;
9827;SDS011;4953;48.952;9.442;2022-07-29T15:43:05;7.47;;;4.57;;
9827;SDS011;4953;48.952;9.442;2022-07-29T15:45:34;7.77;;;5.23;;
9827;SDS011;4953;48.952;9.442;2022-07-29T15:48:02;6.23;;;4.73;;
9827;SDS011;4953;48.952;9.442;2022-07-29T15:50:30;8.67;;;4.50;;
9827;SDS011;4953;48.952;9.442;2022-07-29T15:52:57;4.83;;;4.33;;
9827;SDS011;4953;48.952;9.442;2022-07-29T15:55:25;6.80;;;5.17;;
9827;SDS011;4953;48.952;9.442;2022-07-29T15:57:52;5.37;;;4.37;;
9827;SDS011;4953;48.952;9.442;2022-07-29T16:00:19;7.80;;;4.80;;
9827;SDS011;4953;48.952;9.442;2022-07-29T16:02:48;7.10;;;4.67;;
9827;SDS011;4953;48.952;9.442;2022-07-29T16:05:15;8.23;;;4.90;;
9827;SDS011;4953;48.952;9.442;2022-07-29T16:07:42;9.53;;;4.60;;
9827;SDS011;4953;48.952;9.442;2022-07-29T16:10:09;6.93;;;4.43;;
9827;SDS011;4953;48.952;9.442;2022-07-29T16:12:37;7.03;;;4.37;;
9827;SDS011;4953;48.952;9.442;2022-07-29T16:15:04;5.30;;;4.80;;
9827;SDS011;4953;48.952;9.442;2022-07-29T16:17:33;6.10;;;4.97;;
9827;SDS011;4953;48.952;9.442;2022-07-29T16:20:00;5.60;;;5.10;;
9827;SDS011;4953;48.952;9.442;2022-07-29T16:22:27;6.77;;;5.30;;
9827;SDS011;4953;48.952;9.442;2022-07-29T16:24:54;8.27;;;5.67;;
9827;SDS011;4953;48.952;9.442;2022-07-29T16:27:21;5.50;;;4.83;;
9827;SDS011;4953;48.952;9.442;2022-07-29T16:29:52;7.47;;;4.30;;
9827;SDS011;4953;48.952;9.442;2022-07-29T16:32:19;7.13;;;4.50;;
9827;SDS011;4953;48.952;9.442;2022-07-29T16:34:46;6.80;;;4.97;;
9827;SDS011;4953;48.952;9.442;2022-07-29T16:37:13;4.67;;;4.13;;
9827;SDS011;4953;48.952;9.442;2022-07-29T16:39:40;8.70;;;5.73;;
9827;SDS011;4953;48.952;9.442;2022-07-29T16:42:07;4.80;;;4.30;;
9827;SDS011;4953;48.952;9.442;2022-07-29T16:44:34;6.40;;;4.33;;
9827;SDS011;4953;48.952;9.442;2022-07-29T16:47:02;4.73;;;4.30;;
9827;SDS011;4953;48.952;9.442;2022-07-29T16:49:29;6.80;;;4.27;;
9827;SDS011;4953;48.952;9.442;2022-07-29T16:51:56;10.33;;;4.73;;
9827;SDS011;4953;48.952;9.442;2022-07-29T16:54:23;6.47;;;4.20;;
9827;SDS011;4953;48.952;9.442;2022-07-29T16:56:50;7.13;;;4.33;;
9827;SDS011;4953;48.952;9.442;2022-07-29T16:59:17;5.63;;;4.20;;
9827;SDS011;4953;48.952;9.442;2022-07-29T17:01:44;6.50;;;4.30;;
9827;SDS011;4953;48.952;9.442;2022-07-29T17:04:12;12.23;;;4.57;;
9827;SDS011;4953;48.952;9.442;2022-07-29T17:06:39;5.00;;;4.50;;
9827;SDS011;4953;48.952;9.442;2022-07-29T17:09:07;6.90;;;4.30;;
9827;SDS011;4953;48.952;9.442;2022-07-29T17:11:35;6.83;;;4.80;;
9827;SDS011;4953;48.952;9.442;2022-07-29T17:14:02;5.40;;;4.27;;
9827;SDS011;4953;48.952;9.442;2022-07-29T17:16:29;5.77;;;4.30;;
9827;SDS011;4953;48.952;9.442;2022-07-29T17:18:56;8.13;;;4.63;;
9827;SDS011;4953;48.952;9.442;2022-07-29T17:21:24;12.17;;;4.27;;
9827;SDS011;4953;48.952;9.442;2022-07-29T17:23:51;5.43;;;4.10;;
9827;SDS011;4953;48.952;9.442;2022-07-29T17:26:19;5.53;;;4.90;;
9827;SDS011;4953;48.952;9.442;2022-07-29T17:28:46;5.50;;;3.80;;
9827;SDS011;4953;48.952;9.442;2022-07-29T17:31:13;6.23;;;4.20;;
9827;SDS011;4953;48.952;9.442;2022-07-29T17:33:40;5.27;;;4.20;;
9827;SDS011;4953;48.952;9.442;2022-07-29T17:36:07;8.57;;;4.30;;
9827;SDS011;4953;48.952;9.442;2022-07-29T17:38:50;5.00;;;4.50;;
9827;SDS011;4953;48.952;9.442;2022-07-29T17:41:18;4.83;;;3.70;;
9827;SDS011;4953;48.952;9.442;2022-07-29T17:43:45;4.80;;;4.13;;
9827;SDS011;4953;48.952;9.442;2022-07-29T17:46:12;5.83;;;4.10;;
9827;SDS011;4953;48.952;9.442;2022-07-29T17:48:39;4.93;;;3.97;;
9827;SDS011;4953;48.952;9.442;2022-07-29T17:51:07;4.53;;;3.90;;
9827;SDS011;4953;48.952;9.442;2022-07-29T17:53:34;5.70;;;4.03;;
9827;SDS011;4953;48.952;9.442;2022-07-29T17:56:03;5.20;;;4.70;;
9827;SDS011;4953;48.952;9.442;2022-07-29T17:58:30;6.37;;;4.30;;
9827;SDS011;4953;48.952;9.442;2022-07-29T18:01:00;6.43;;;3.80;;
9827;SDS011;4953;48.952;9.442;2022-07-29T18:03:27;4.53;;;4.00;;
9827;SDS011;4953;48.952;9.442;2022-07-29T18:05:53;6.33;;;3.73;;
9827;SDS011;4953;48.952;9.442;2022-07-29T18:08:20;6.03;;;3.70;;
9827;SDS011;4953;48.952;9.442;2022-07-29T18:10:47;5.97;;;4.13;;
9827;SDS011;4953;48.952;9.442;2022-07-29T18:13:16;6.03;;;4.20;;
9827;SDS011;4953;48.952;9.442;2022-07-29T18:15:43;6.97;;;4.60;;
9827;SDS011;4953;48.952;9.442;2022-07-29T18:18:11;6.73;;;4.30;;
9827;SDS011;4953;48.952;9.442;2022-07-29T18:20:38;5.97;;;4.00;;
9827;SDS011;4953;48.952;9.442;2022-07-29T18:23:05;6.90;;;4.47;;
9827;SDS011;4953;48.952;9.442;2022-07-29T18:25:32;5.93;;;4.47;;
9827;SDS011;4953;48.952;9.442;2022-07-29T18:27:59;6.73;;;5.03;;
9827;SDS011;4953;48.952;9.442;2022-07-29T18:30:28;6.77;;;4.80;;
9827;SDS011;4953;48.952;9.442;2022-07-29T18:32:57;6.50;;;4.57;;
9827;SDS011;4953;48.952;9.442;2022-07-29T18:35:24;5.90;;;4.40;;
9827;SDS011;4953;48.952;9.442;2022-07-29T18:37:51;6.47;;;4.27;;
9827;SDS011;4953;48.952;9.442;2022-07-29T18:40:19;4.73;;;4.23;;
9827;SDS011;4953;48.952;9.442;2022-07-29T18:42:47;7.73;;;4.77;;
9827;SDS011;4953;48.952;9.442;2022-07-29T18:45:14;5.10;;;4.60;;
9827;SDS011;4953;48.952;9.442;2022-07-29T18:47:43;6.80;;;4.17;;
9827;SDS011;4953;48.952;9.442;2022-07-29T18:50:10;5.30;;;4.50;;
9827;SDS011;4953;48.952;9.442;2022-07-29T18:52:37;5.23;;;4.73;;
9827;SDS011;4953;48.952;9.442;2022-07-29T18:55:04;4.80;;;4.30;;
9827;SDS011;4953;48.952;9.442;2022-07-29T18:57:31;8.20;;;4.23;;
9827;SDS011;4953;48.952;9.442;2022-07-29T18:59:58;5.90;;;5.30;;
9827;SDS011;4953;48.952;9.442;2022-07-29T19:02:28;11.20;;;5.17;;
9827;SDS011;4953;48.952;9.442;2022-07-29T19:04:56;6.93;;;4.73;;
9827;SDS011;4953;48.952;9.442;2022-07-29T19:07:24;17.93;;;7.00;;
9827;SDS011;4953;48.952;9.442;2022-07-29T19:09:50;8.70;;;5.40;;
9827;SDS011;4953;48.952;9.442;2022-07-29T19:12:18;7.47;;;5.37;;
9827;SDS011;4953;48.952;9.442;2022-07-29T19:14:45;6.03;;;4.70;;
9827;SDS011;4953;48.952;9.442;2022-07-29T19:17:11;5.20;;;4.50;;
9827;SDS011;4953;48.952;9.442;2022-07-29T19:19:38;5.33;;;4.83;;
9827;SDS011;4953;48.952;9.442;2022-07-29T19:22:06;5.27;;;4.77;;
9827;SDS011;4953;48.952;9.442;2022-07-29T19:24:34;6.23;;;4.73;;
9827;SDS011;4953;48.952;9.442;2022-07-29T19:27:01;6.63;;;5.03;;
9827;SDS011;4953;48.952;9.442;2022-07-29T19:29:28;6.67;;;4.57;;
9827;SDS011;4953;48.952;9.442;2022-07-29T19:31:56;5.40;;;4.90;;
9827;SDS011;4953;48.952;9.442;2022-07-29T19:34:25;5.27;;;4.77;;
9827;SDS011;4953;48.952;9.442;2022-07-29T19:36:52;8.33;;;4.33;;
9827;SDS011;4953;48.952;9.442;2022-07-29T19:39:20;5.33;;;4.83;;
9827;SDS011;4953;48.952;9.442;2022-07-29T19:41:47;6.23;;;5.10;;
9827;SDS011;4953;48.952;9.442;2022-07-29T19:44:14;5.17;;;4.67;;
9827;SDS011;4953;48.952;9.442;2022-07-29T19:46:41;5.40;;;4.33;;